.
WxDataArchive / Data Records for 2015-10-25
2015-10-24 October 2015 2015-10-26

Data Records for Sunday, 25 October 2015

Time	Temp	Chill	HIndex	Humid	Dewpt	 Wind 	HiWind	WindDir	Rain 	Barom
-----	----	-----	------	-----	-----	------	------	-------	-----	-----
00:00	53.9	53.9	53.9	92	51.6	1	4	292	0.00	30.004 
00:05	53.9	53.9	53.9	92	51.6	1	5	292	0.00	30.004 
00:10	53.9	53.9	53.9	92	51.6	1	3	292	0.00	30.004 
00:15	53.8	53.8	53.8	91	51.2	2	6	292	0.00	30.007 
00:20	53.5	53.5	53.5	91	50.9	2	4	292	0.00	30.007 
00:25	53.5	53.5	53.5	91	50.9	1	4	315	0.00	30.007 
00:30	53.3	53.3	53.3	90	50.4	2	5	315	0.00	30.018 
00:35	53.2	53.2	53.2	89	50.0	2	5	315	0.00	30.018 
00:40	53.2	53.2	53.2	89	50.0	2	4	315	0.00	30.018 
00:45	53.2	53.2	53.2	88	49.7	1	4	315	0.00	30.020 
00:50	53.2	53.2	53.2	88	49.7	2	4	270	0.00	30.020 
00:55	53.2	53.2	53.2	88	49.7	1	4	292	0.00	30.020 
01:00	53.2	53.2	53.2	87	49.4	2	5	292	0.00	30.029 
01:05	53.1	53.1	53.1	87	49.3	2	6	315	0.00	30.029 
01:10	53.1	53.1	53.1	86	49.0	1	6	292	0.00	30.029 
01:15	53.1	53.1	53.1	86	49.0	1	3	292	0.00	30.035 
01:20	53.1	53.1	53.1	86	49.0	1	5	292	0.00	30.035 
01:25	53.1	53.1	53.1	86	49.0	1	4	270	0.00	30.035 
01:30	53.1	53.1	53.1	86	49.0	0	3	270	0.00	30.039 
01:35	53.1	53.1	53.1	86	49.0	2	4	292	0.00	30.039 
01:40	53.1	53.1	53.1	86	49.0	1	6	338	0.00	30.039 
01:45	53.1	53.1	53.1	85	48.7	2	6	292	0.00	30.046 
01:50	53.1	53.1	53.1	84	48.4	3	6	292	0.00	30.046 
01:55	52.9	52.9	52.9	84	48.2	3	9	292	0.00	30.046 
02:00	52.9	52.9	52.9	84	48.2	1	4	315	0.00	30.053 
02:05	52.8	52.8	52.8	83	47.8	3	7	292	0.00	30.053 
02:10	52.5	52.5	52.5	83	47.5	3	11	292	0.00	30.053 
02:15	52.2	52.2	52.2	84	47.5	2	5	292	0.00	30.064 
02:20	51.9	51.9	51.9	85	47.5	2	6	338	0.00	30.064 
02:25	51.7	51.7	51.7	85	47.3	1	6	338	0.00	30.064 
02:30	51.7	51.7	51.7	86	47.6	1	4	315	0.00	30.066 
02:35	51.6	51.6	51.6	86	47.5	1	3	315	0.00	30.066 
02:40	51.6	51.6	51.6	87	47.9	1	3	315	0.00	30.066 
02:45	51.4	51.4	51.4	87	47.7	1	3	315	0.00	30.074 
02:50	51.4	51.4	51.4	87	47.7	1	3	315	0.00	30.074 
02:55	51.3	51.3	51.3	87	47.6	1	3	315	0.00	30.074 
03:00	51.3	51.3	51.3	87	47.6	2	5	315	0.00	30.080 
03:05	51.3	51.3	51.3	86	47.3	1	5	292	0.00	30.080 
03:10	51.3	51.3	51.3	86	47.3	1	4	315	0.00	30.080 
03:15	51.3	51.3	51.3	86	47.3	1	4	315	0.00	30.084 
03:20	51.3	51.3	51.3	86	47.3	0	3	315	0.00	30.084 
03:25	51.3	51.3	51.3	86	47.3	1	3	315	0.00	30.084 
03:30	51.3	51.3	51.3	86	47.3	1	4	315	0.00	30.094 
03:35	51.3	51.3	51.3	86	47.3	1	3	270	0.00	30.094 
03:40	51.3	51.3	51.3	86	47.3	0	2	270	0.00	30.094 
03:45	51.1	51.1	51.1	86	47.1	1	3	270	0.00	30.098 
03:50	51.1	51.1	51.1	86	47.1	0	3	270	0.00	30.098 
03:55	51.0	51.0	51.0	85	46.7	0	3	270	0.00	30.098 
04:00	51.0	51.0	51.0	85	46.7	0	1	270	0.00	30.099 
04:05	51.0	51.0	51.0	85	46.7	0	2	270	0.00	30.099 
04:10	50.8	50.8	50.8	85	46.5	1	3	270	0.00	30.099 
04:15	50.8	50.8	50.8	85	46.5	0	1	270	0.00	30.106 
04:20	50.8	50.8	50.8	86	46.8	0	1	270	0.00	30.106 
04:25	50.8	50.8	50.8	85	46.5	0	2	270	0.00	30.106 
04:30	50.8	50.8	50.8	85	46.5	1	6	292	0.00	30.114 
04:35	50.8	50.8	50.8	85	46.5	1	4	292	0.00	30.114 
04:40	50.8	50.8	50.8	85	46.5	1	4	292	0.00	30.114 
04:45	50.8	50.8	50.8	84	46.1	1	3	292	0.00	30.123 
04:50	50.8	50.8	50.8	84	46.1	0	2	292	0.00	30.123 
04:55	50.8	50.8	50.8	84	46.1	1	4	292	0.00	30.123 
05:00	50.8	50.8	50.8	83	45.8	1	5	315	0.00	30.127 
05:05	50.8	50.8	50.8	83	45.8	0	3	315	0.00	30.127 
05:10	50.8	50.8	50.8	83	45.8	1	4	315	0.00	30.127 
05:15	50.8	50.8	50.8	83	45.8	1	4	315	0.00	30.138 
05:20	50.8	50.8	50.8	82	45.5	2	5	292	0.00	30.138 
05:25	50.8	50.8	50.8	82	45.5	1	4	292	0.00	30.138 
05:30	50.7	50.7	50.7	83	45.7	0	2	292	0.00	30.146 
05:35	50.7	50.7	50.7	82	45.4	0	2	292	0.00	30.146 
05:40	50.5	50.5	50.5	82	45.2	0	1	292	0.00	30.146 
05:45	50.4	50.4	50.4	82	45.1	0	1	292	0.00	30.153 
05:50	50.2	50.2	50.2	82	44.9	0	1	292	0.00	30.153 
05:55	50.1	50.1	50.1	82	44.8	0	1	292	0.00	30.153 
06:00	49.9	49.9	49.9	82	44.6	0	1	292	0.00	30.158 
06:05	49.8	49.8	49.8	82	44.5	0	3	292	0.00	30.158 
06:10	49.5	49.5	49.5	82	44.2	0	1	292	0.00	30.158 
06:15	49.4	49.4	49.4	82	44.1	0	0	---	0.00	30.171 
06:20	49.2	49.2	49.2	82	43.9	0	0	---	0.00	30.171 
06:25	48.9	48.9	48.9	82	43.6	0	0	---	0.00	30.171 
06:30	48.6	48.6	48.6	82	43.4	0	0	---	0.00	30.183 
06:35	48.5	48.5	48.5	83	43.6	0	0	---	0.00	30.183 
06:40	48.2	48.2	48.2	83	43.3	0	0	---	0.00	30.183 
06:45	47.9	47.9	47.9	83	43.0	0	0	---	0.00	30.191 
06:50	47.6	47.6	47.6	84	43.0	0	0	---	0.00	30.191 
06:55	47.3	47.3	47.3	84	42.7	0	0	---	0.00	30.191 
07:00	46.8	46.8	46.8	84	42.2	0	0	---	0.00	30.204 
07:05	46.5	46.5	46.5	85	42.2	0	0	---	0.00	30.204 
07:10	46.2	46.2	46.2	85	41.9	0	0	---	0.00	30.204 
07:15	46.0	46.0	46.0	86	42.0	0	0	---	0.00	30.220 
07:20	45.7	45.7	45.7	86	41.8	0	0	---	0.00	30.220 
07:25	45.4	45.4	45.4	86	41.5	0	0	---	0.00	30.220 
07:30	45.1	45.1	45.1	86	41.2	0	0	---	0.00	30.223 
07:35	44.8	44.8	44.8	87	41.2	0	0	---	0.00	30.223 
07:40	44.5	44.5	44.5	87	40.9	0	0	---	0.00	30.223 
07:45	44.1	44.1	44.1	87	40.5	0	0	---	0.00	30.225 
07:50	43.8	43.8	43.8	88	40.5	0	0	---	0.00	30.225 
07:55	43.6	43.6	43.6	88	40.3	0	0	---	0.00	30.225 
08:00	43.5	43.5	43.5	89	40.5	0	0	---	0.00	30.237 
08:05	43.5	43.5	43.5	89	40.5	0	0	---	0.00	30.237 
08:10	43.3	43.3	43.3	89	40.3	0	0	---	0.00	30.237 
08:15	43.2	43.2	43.2	89	40.2	0	0	---	0.00	30.243 
08:20	43.2	43.2	43.2	90	40.5	0	0	---	0.00	30.243 
08:25	42.9	42.9	42.9	90	40.2	0	0	---	0.00	30.243 
08:30	43.1	43.1	43.1	90	40.4	0	0	---	0.00	30.249 
08:35	43.2	43.2	43.2	91	40.8	0	0	---	0.00	30.249 
08:40	43.3	43.3	43.3	91	40.9	0	0	---	0.00	30.249 
08:45	43.5	43.5	43.5	91	41.0	0	0	---	0.00	30.254 
08:50	43.8	43.8	43.8	92	41.6	0	0	---	0.00	30.254 
08:55	44.1	44.1	44.1	92	41.9	0	0	---	0.00	30.254 
09:00	44.5	44.5	44.5	92	42.3	0	1	292	0.00	30.265 
09:05	44.8	44.8	44.8	92	42.6	0	1	292	0.00	30.265 
09:10	45.1	45.1	45.1	92	42.9	0	0	---	0.00	30.265 
09:15	45.4	45.4	45.4	91	42.9	0	0	---	0.00	30.273 
09:20	45.8	45.8	45.8	91	43.3	0	1	292	0.00	30.273 
09:25	46.1	46.1	46.1	91	43.6	0	1	292	0.00	30.273 
09:30	46.5	46.5	46.5	90	43.7	0	0	---	0.00	30.286 
09:35	47.0	47.0	47.0	89	43.9	0	1	292	0.00	30.286 
09:40	47.3	47.3	47.3	87	43.6	0	2	292	0.00	30.286 
09:45	47.7	47.7	47.7	85	43.4	0	1	292	0.00	30.291 
09:50	48.2	48.2	48.2	83	43.3	0	1	225	0.00	30.291 
09:55	48.6	48.6	48.6	80	42.7	1	4	225	0.00	30.291 
10:00	48.9	48.9	48.9	77	42.0	1	3	315	0.00	30.299 
10:05	49.4	49.4	49.4	75	41.8	0	3	315	0.00	30.299 
10:10	49.6	49.6	49.6	72	40.9	1	4	315	0.00	30.299 
10:15	49.9	49.9	49.9	71	40.9	0	2	315	0.00	30.302 
10:20	50.4	50.4	50.4	70	41.0	1	2	202	0.00	30.302 
10:25	50.8	50.8	50.8	67	40.2	1	4	248	0.00	30.302 
10:30	51.0	51.0	51.0	65	39.7	1	4	315	0.00	30.307 
10:35	51.1	51.1	51.1	65	39.7	1	4	315	0.00	30.307 
10:40	51.4	51.4	51.4	61	38.4	2	5	315	0.00	30.307 
10:45	51.6	51.6	51.6	62	39.0	2	4	292	0.00	30.310 
10:50	51.7	51.7	51.7	61	38.7	1	3	338	0.00	30.310 
10:55	52.0	52.0	52.0	60	38.5	2	5	0	0.00	30.310 
11:00	52.0	52.0	52.0	59	38.1	2	6	315	0.00	30.313 
11:05	52.3	52.3	52.3	60	38.8	0	2	315	0.00	30.313 
11:10	52.8	52.8	52.8	58	38.4	1	4	315	0.00	30.313 
11:15	53.3	53.3	53.3	58	38.9	1	4	68	0.00	30.316 
11:20	53.3	53.3	53.3	55	37.5	1	4	315	0.00	30.316 
11:25	53.5	53.5	53.5	57	38.6	1	4	315	0.00	30.316 
11:30	53.8	53.8	53.8	55	38.0	1	5	112	0.00	30.314 
11:35	54.1	54.1	54.1	56	38.8	1	4	112	0.00	30.314 
11:40	54.1	54.1	54.1	55	38.3	1	4	0	0.00	30.314 
11:45	54.1	54.1	54.1	54	37.8	1	5	338	0.00	30.314 
11:50	54.1	54.1	54.1	54	37.8	0	3	338	0.00	30.314 
11:55	54.4	54.4	54.4	52	37.1	1	4	68	0.00	30.314 
12:00	54.5	54.5	54.5	53	37.7	1	6	45	0.00	30.314 
12:05	54.8	54.8	54.8	52	37.5	1	4	45	0.00	30.314 
12:10	55.1	55.1	55.1	51	37.3	1	5	90	0.00	30.314 
12:15	55.3	55.3	55.3	51	37.5	1	4	90	0.00	30.315 
12:20	55.3	55.3	55.3	50	37.0	1	5	338	0.00	30.315 
12:25	55.1	55.1	55.1	50	36.8	1	5	338	0.00	30.315 
12:30	55.1	55.1	55.1	52	37.8	1	5	315	0.00	30.315 
12:35	55.4	55.4	55.4	50	37.1	1	4	90	0.00	30.315 
12:40	55.9	55.9	55.9	50	37.5	1	4	135	0.00	30.315 
12:45	56.0	56.0	56.0	50	37.6	1	3	270	0.00	30.314 
12:50	56.5	56.5	56.5	49	37.6	1	4	112	0.00	30.314 
12:55	56.6	56.6	56.6	50	38.2	0	3	22	0.00	30.314 
13:00	56.9	56.9	56.9	49	37.9	1	4	68	0.00	30.311 
13:05	56.7	56.7	56.7	47	36.7	1	4	90	0.00	30.311 
13:10	56.9	56.9	56.9	48	37.4	1	5	90	0.00	30.311 
13:15	57.0	57.0	57.0	47	37.0	1	3	22	0.00	30.308 
13:20	57.2	57.2	57.2	47	37.2	2	5	90	0.00	30.308 
13:25	57.2	57.2	57.2	47	37.2	1	3	90	0.00	30.308 
13:30	57.0	57.0	57.0	44	35.3	0	3	90	0.00	30.304 
13:35	57.2	57.2	57.2	47	37.2	0	2	90	0.00	30.304 
13:40	57.3	57.3	57.3	47	37.2	0	2	68	0.00	30.304 
13:45	57.2	57.2	57.2	46	36.6	1	2	68	0.00	30.298 
13:50	57.2	57.2	57.2	45	36.1	1	3	68	0.00	30.298 
13:55	57.2	57.2	57.2	46	36.6	1	3	315	0.00	30.298 
14:00	57.2	57.2	57.2	46	36.6	1	5	315	0.00	30.296 
14:05	57.6	57.6	57.6	46	37.0	0	2	315	0.00	30.296 
14:10	57.8	57.8	57.8	45	36.6	1	3	315	0.00	30.296 
14:15	58.0	58.0	58.0	45	36.8	0	2	68	0.00	30.292 
14:20	58.0	58.0	58.0	45	36.8	1	4	68	0.00	30.292 
14:25	58.1	58.1	58.1	44	36.3	0	4	22	0.00	30.292 
14:30	58.1	58.1	58.1	43	35.7	1	4	22	0.00	30.291 
14:35	58.3	58.3	58.3	46	37.6	1	4	292	0.00	30.291 
14:40	58.3	58.3	58.3	44	36.5	1	5	90	0.00	30.291 
14:45	58.4	58.4	58.4	42	35.4	1	3	22	0.00	30.287 
14:50	58.4	58.4	58.4	41	34.8	1	4	0	0.00	30.287 
14:55	58.6	58.6	58.6	42	35.6	0	3	90	0.00	30.287 
15:00	58.6	58.6	58.6	41	35.0	0	3	90	0.00	30.281 
15:05	58.7	58.7	58.7	41	35.1	0	3	90	0.00	30.281 
15:10	58.9	58.9	58.9	41	35.2	1	5	68	0.00	30.281 
15:15	59.0	59.0	59.0	40	34.7	1	4	338	0.00	30.280 
15:20	58.9	58.9	58.9	39	34.0	1	4	112	0.00	30.280 
15:25	58.9	58.9	58.9	41	35.2	0	2	112	0.00	30.280 
15:30	59.0	59.0	59.0	41	35.3	0	2	45	0.00	30.280 
15:35	59.2	59.2	59.2	41	35.5	1	3	90	0.00	30.280 
15:40	59.2	59.2	59.2	41	35.5	0	3	90	0.00	30.280 
15:45	59.0	59.0	59.0	40	34.7	1	3	90	0.00	30.280 
15:50	59.0	59.0	59.0	41	35.3	0	1	90	0.00	30.280 
15:55	59.3	59.3	59.3	39	34.3	1	3	90	0.00	30.280 
16:00	59.3	59.3	59.3	39	34.3	1	3	90	0.00	30.281 
16:05	59.2	59.2	59.2	40	34.9	0	2	90	0.00	30.281 
16:10	59.2	59.2	59.2	38	33.6	1	3	90	0.00	30.281 
16:15	59.2	59.2	59.2	39	34.3	0	3	90	0.00	30.280 
16:20	59.3	59.3	59.3	40	35.0	0	2	90	0.00	30.280 
16:25	59.3	59.3	59.3	39	34.3	1	2	90	0.00	30.280 
16:30	59.3	59.3	59.3	40	35.0	1	2	90	0.00	30.277 
16:35	59.3	59.3	59.3	39	34.3	0	2	90	0.00	30.277 
16:40	59.5	59.5	59.5	38	33.9	0	3	90	0.00	30.277 
16:45	59.5	59.5	59.5	39	34.5	0	3	45	0.00	30.282 
16:50	59.5	59.5	59.5	37	33.2	0	3	45	0.00	30.282 
16:55	59.5	59.5	59.5	36	32.5	0	1	90	0.00	30.282 
17:00	59.5	59.5	59.5	37	33.2	0	2	90	0.00	30.285 
17:05	59.5	59.5	59.5	38	33.9	0	3	90	0.00	30.285 
17:10	59.3	59.3	59.3	38	33.7	1	4	90	0.00	30.285 
17:15	59.2	59.2	59.2	37	32.9	0	2	90	0.00	30.288 
17:20	59.2	59.2	59.2	39	34.3	0	2	90	0.00	30.288 
17:25	59.0	59.0	59.0	37	32.8	0	2	90	0.00	30.288 
17:30	58.9	58.9	58.9	37	32.7	0	2	90	0.00	30.296 
17:35	58.9	58.9	58.9	39	34.0	0	2	90	0.00	30.296 
17:40	58.9	58.9	58.9	38	33.3	0	3	90	0.00	30.296 
17:45	58.7	58.7	58.7	37	32.5	1	3	22	0.00	30.299 
17:50	58.7	58.7	58.7	37	32.5	0	2	338	0.00	30.299 
17:55	58.6	58.6	58.6	38	33.1	0	0	---	0.00	30.299 
18:00	58.4	58.4	58.4	40	34.2	0	1	338	0.00	30.304 
18:05	58.3	58.3	58.3	39	33.5	0	1	338	0.00	30.304 
18:10	58.1	58.1	58.1	40	33.9	0	0	---	0.00	30.304 
18:15	57.8	57.8	57.8	41	34.3	0	0	---	0.00	30.316 
18:20	57.5	57.5	57.5	41	34.0	0	0	---	0.00	30.316 
18:25	57.2	57.2	57.2	42	34.3	0	0	---	0.00	30.316 
18:30	57.0	57.0	57.0	43	34.7	0	0	---	0.00	30.317 
18:35	56.6	56.6	56.6	43	34.4	0	0	---	0.00	30.317 
18:40	56.3	56.3	56.3	44	34.7	0	0	---	0.00	30.317 
18:45	56.0	56.0	56.0	44	34.4	0	0	---	0.00	30.319 
18:50	55.6	55.6	55.6	45	34.6	0	0	---	0.00	30.319 
18:55	55.1	55.1	55.1	46	34.7	0	0	---	0.00	30.319 
19:00	54.7	54.7	54.7	47	34.9	0	0	---	0.00	30.321 
19:05	54.1	54.1	54.1	50	35.9	0	0	---	0.00	30.321 
19:10	53.6	53.6	53.6	51	35.9	0	0	---	0.00	30.321 
19:15	53.1	53.1	53.1	52	35.9	0	0	---	0.00	30.340 
19:20	52.5	52.5	52.5	53	35.9	0	0	---	0.00	30.340 
19:25	52.0	52.0	52.0	54	35.9	0	0	---	0.00	30.340 
19:30	51.4	51.4	51.4	55	35.8	0	0	---	0.00	30.341 
19:35	51.0	51.0	51.0	57	36.3	0	0	---	0.00	30.341 
19:40	50.5	50.5	50.5	59	36.7	0	0	---	0.00	30.341 
19:45	50.1	50.1	50.1	60	36.8	0	0	---	0.00	30.343 
19:50	49.6	49.6	49.6	62	37.1	0	0	---	0.00	30.343 
19:55	49.2	49.2	49.2	63	37.1	0	0	---	0.00	30.343 
20:00	48.9	48.9	48.9	63	36.9	0	0	---	0.00	30.346 
20:05	48.5	48.5	48.5	65	37.3	0	0	---	0.00	30.346 
20:10	48.0	48.0	48.0	66	37.2	0	0	---	0.00	30.346 
20:15	47.9	47.9	47.9	67	37.5	0	0	---	0.00	30.343 
20:20	47.6	47.6	47.6	67	37.2	0	0	---	0.00	30.343 
20:25	47.3	47.3	47.3	67	36.9	0	0	---	0.00	30.343 
20:30	47.0	47.0	47.0	68	37.0	0	0	---	0.00	30.342 
20:35	46.7	46.7	46.7	69	37.1	0	0	---	0.00	30.342 
20:40	46.4	46.4	46.4	69	36.8	0	0	---	0.00	30.342 
20:45	46.1	46.1	46.1	70	36.9	0	0	---	0.00	30.343 
20:50	46.0	46.0	46.0	70	36.8	0	0	---	0.00	30.343 
20:55	45.7	45.7	45.7	72	37.2	0	0	---	0.00	30.343 
21:00	45.5	45.5	45.5	72	37.0	0	0	---	0.00	30.336 
21:05	45.2	45.2	45.2	72	36.7	0	0	---	0.00	30.336 
21:10	45.1	45.1	45.1	73	37.0	0	0	---	0.00	30.336 
21:15	44.8	44.8	44.8	74	37.0	0	0	---	0.00	30.338 
21:20	44.6	44.6	44.6	74	36.8	0	0	---	0.00	30.338 
21:25	44.5	44.5	44.5	75	37.1	0	0	---	0.00	30.338 
21:30	44.3	44.3	44.3	76	37.2	0	0	---	0.00	30.341 
21:35	44.2	44.2	44.2	76	37.1	0	0	---	0.00	30.341 
21:40	44.1	44.1	44.1	76	37.0	0	0	---	0.00	30.341 
21:45	43.9	43.9	43.9	77	37.2	0	0	---	0.00	30.344 
21:50	43.9	43.9	43.9	77	37.2	0	0	---	0.00	30.344 
21:55	43.9	43.9	43.9	78	37.5	0	0	---	0.00	30.344 
22:00	43.8	43.8	43.8	78	37.4	0	0	---	0.00	30.351 
22:05	43.6	43.6	43.6	78	37.2	0	0	---	0.00	30.351 
22:10	43.6	43.6	43.6	78	37.2	0	0	---	0.00	30.351 
22:15	43.5	43.5	43.5	78	37.1	0	0	---	0.00	30.346 
22:20	43.3	43.3	43.3	79	37.2	0	0	---	0.00	30.346 
22:25	43.2	43.2	43.2	79	37.1	0	0	---	0.00	30.346 
22:30	43.1	43.1	43.1	80	37.4	0	0	---	0.00	30.356 
22:35	42.8	42.8	42.8	80	37.1	0	0	---	0.00	30.356 
22:40	42.6	42.6	42.6	80	36.9	0	0	---	0.00	30.356 
22:45	42.5	42.5	42.5	81	37.1	0	0	---	0.00	30.357 
22:50	42.3	42.3	42.3	81	36.9	0	0	---	0.00	30.357 
22:55	42.3	42.3	42.3	81	36.9	0	0	---	0.00	30.357 
23:00	42.2	42.2	42.2	81	36.8	0	0	---	0.00	30.358 
23:05	42.2	42.2	42.2	81	36.8	0	0	---	0.00	30.358 
23:10	42.2	42.2	42.2	81	36.8	0	0	---	0.00	30.358 
23:15	42.2	42.2	42.2	81	36.8	0	0	---	0.00	30.358 
23:20	42.2	42.2	42.2	81	36.8	0	0	---	0.00	30.358 
23:25	42.1	42.1	42.1	81	36.7	0	0	---	0.00	30.358 
23:30	42.1	42.1	42.1	81	36.7	0	0	---	0.00	30.366 
23:35	41.9	41.9	41.9	81	36.5	0	0	---	0.00	30.366 
23:40	41.9	41.9	41.9	81	36.5	0	0	---	0.00	30.366 
23:45	41.8	41.8	41.8	82	36.7	0	0	---	0.00	30.362 
23:50	41.6	41.6	41.6	82	36.5	0	0	---	0.00	30.362 
23:55	41.5	41.5	41.5	82	36.4	0	0	---	0.00	30.362 

CoCoRaHS
IN-AL-39
A2 Web Hosting
Creative Commons License
GoDaddy
search engine by freefind advanced

loaded 2018-11-12 19:12:55 • last modified 2010-11-18 10:43:29
Privacy PolicyDisclaimer
• wx.awcolley.com is powered by PmWiki v.2002016 •
• all content (unless otherwise noted) © 2018 A W Colley